Time;durP1;ratioP1;P1;durP2;ratioP2;P2;SDS_P1;SDS_P2;PMS_P1;PMS_P2;Temp;Humidity;BMP_temperature;BMP_pressure;BME280_temperature;BME280_humidity;BME280_pressure;Samples;Min_cycle;Max_cycle;Signal;HPM_P1;HPM_P2
2023/01/15 00:01:33;;;;;;;4.20;1.90;;;7.40;99.90;;;;;;5141071;27;20464;-68
2023/01/15 00:04:02;;;;;;;2.50;1.70;;;7.10;99.90;;;;;;5139992;27;20470;-68
2023/01/15 00:06:31;;;;;;;3.43;1.80;;;7.00;99.90;;;;;;5121650;27;20888;-69
2023/01/15 00:08:59;;;;;;;3.33;2.20;;;6.70;99.90;;;;;;5119855;28;20463;-69
2023/01/15 00:11:27;;;;;;;4.70;2.40;;;6.50;99.90;;;;;;5119868;28;20907;-69
2023/01/15 00:13:56;;;;;;;7.23;2.20;;;6.30;99.90;;;;;;5120323;28;20892;-69
2023/01/15 00:16:25;;;;;;;5.63;2.07;;;6.30;99.90;;;;;;5120854;27;20480;-69
2023/01/15 00:18:54;;;;;;;4.80;2.50;;;6.30;99.90;;;;;;5120270;28;20740;-69
2023/01/15 00:21:21;;;;;;;4.37;2.30;;;6.20;99.90;;;;;;5120142;28;20463;-69
2023/01/15 00:29:28;;;;;;;4.70;2.40;;;6.30;99.90;;;;;;5088845;27;20439;-69
2023/01/15 00:31:58;;;;;;;5.20;2.80;;;6.30;99.90;;;;;;5140116;27;20769;-69
2023/01/15 00:34:26;;;;;;;4.63;2.37;;;6.30;99.90;;;;;;5140421;27;20425;-69
2023/01/15 00:36:54;;;;;;;4.87;2.60;;;6.30;99.90;;;;;;5125911;27;20582;-69
2023/01/15 00:39:22;;;;;;;4.30;2.50;;;6.30;99.90;;;;;;5119408;27;20499;-69
2023/01/15 00:41:51;;;;;;;7.07;3.00;;;6.20;99.90;;;;;;5120058;28;20491;-69
2023/01/15 00:44:19;;;;;;;18.30;3.20;;;6.10;99.90;;;;;;5119636;28;20521;-68
2023/01/15 00:46:47;;;;;;;4.60;2.83;;;6.20;99.90;;;;;;5126310;27;20512;-68
2023/01/15 00:49:14;;;;;;;5.10;2.73;;;6.10;99.90;;;;;;5139938;27;20441;-71
2023/01/15 00:51:42;;;;;;;6.93;2.40;;;6.10;99.90;;;;;;5139357;27;20459;-71
2023/01/15 00:54:09;;;;;;;3.20;2.10;;;6.10;99.90;;;;;;5140061;27;20510;-70
2023/01/15 00:56:36;;;;;;;4.20;2.00;;;6.10;99.90;;;;;;5136304;27;20469;-68
2023/01/15 00:59:05;;;;;;;4.13;1.90;;;6.10;99.90;;;;;;5119218;28;20467;-68
2023/01/15 01:01:33;;;;;;;3.67;2.37;;;6.00;99.90;;;;;;5118883;28;20471;-67
2023/01/15 01:04:00;;;;;;;4.23;2.00;;;6.00;99.90;;;;;;5119127;28;20533;-67
2023/01/15 01:06:27;;;;;;;5.17;2.30;;;6.00;99.90;;;;;;5119238;28;20456;-67
2023/01/15 01:08:55;;;;;;;4.30;2.00;;;6.10;99.90;;;;;;5136564;27;20761;-67
2023/01/15 01:11:25;;;;;;;5.03;2.00;;;6.10;99.90;;;;;;5139737;27;20854;-68
2023/01/15 01:13:53;;;;;;;6.30;2.30;;;6.20;99.90;;;;;;5139544;27;20903;-68
2023/01/15 01:16:29;;;;;;;3.77;2.20;;;6.10;99.90;;;;;;5138956;27;20497;-68
2023/01/15 01:18:57;;;;;;;3.17;1.70;;;6.10;99.90;;;;;;5123687;27;20532;-68
2023/01/15 01:21:24;;;;;;;3.90;2.67;;;6.10;99.90;;;;;;5119121;28;20756;-68
2023/01/15 01:23:51;;;;;;;4.80;1.83;;;6.10;99.90;;;;;;5118381;28;20467;-68
2023/01/15 01:26:18;;;;;;;2.67;1.57;;;6.10;99.90;;;;;;5118930;28;20461;-68
2023/01/15 01:28:49;;;;;;;2.63;1.43;;;6.00;99.90;;;;;;5126330;27;20774;-68
2023/01/15 01:31:17;;;;;;;2.00;1.30;;;6.00;99.90;;;;;;5138135;27;20947;-69
2023/01/15 01:33:48;;;;;;;2.20;1.27;;;6.00;99.90;;;;;;5139076;27;20805;-69
2023/01/15 01:36:15;;;;;;;2.20;1.20;;;5.90;99.90;;;;;;5139152;27;20483;-68
2023/01/15 01:38:42;;;;;;;7.17;2.23;;;5.90;99.90;;;;;;5133276;27;20466;-69
2023/01/15 01:41:09;;;;;;;3.93;2.03;;;5.90;99.90;;;;;;5118073;28;20422;-68
2023/01/15 01:43:54;;;;;;;2.53;1.40;;;5.90;99.90;;;;;;5118073;27;20896;-69
2023/01/15 01:46:21;;;;;;;3.10;1.70;;;5.80;99.90;;;;;;5117855;28;20864;-68
2023/01/15 01:48:52;;;;;;;2.93;1.60;;;5.80;99.90;;;;;;5119784;27;20463;-69
2023/01/15 01:51:22;;;;;;;2.83;1.30;;;5.90;99.90;;;;;;5138851;27;20765;-68
2023/01/15 01:53:50;;;;;;;4.67;1.60;;;5.80;99.90;;;;;;5138519;27;20466;-68
2023/01/15 01:56:18;;;;;;;4.03;1.40;;;5.80;99.90;;;;;;5138751;27;20752;-68
2023/01/15 01:58:48;;;;;;;2.43;1.50;;;5.80;99.90;;;;;;5138710;27;20441;-68
2023/01/15 02:01:15;;;;;;;5.80;2.43;;;5.80;99.90;;;;;;5119407;27;20818;-68
2023/01/15 02:03:43;;;;;;;3.70;1.80;;;5.80;99.90;;;;;;5118621;28;20436;-68
2023/01/15 02:06:14;;;;;;;7.23;2.33;;;5.90;99.90;;;;;;5118207;28;20440;-68
2023/01/15 02:08:41;;;;;;;3.37;1.70;;;5.90;99.90;;;;;;5118081;28;20947;-67
2023/01/15 02:11:15;;;;;;;2.20;1.73;;;5.90;99.90;;;;;;5130891;27;20469;-68
2023/01/15 02:13:49;;;;;;;4.70;1.80;;;5.80;99.90;;;;;;5138213;27;20459;-68
2023/01/15 02:16:21;;;;;;;4.53;1.80;;;5.80;99.90;;;;;;5117707;28;20518;-68
2023/01/15 02:18:56;;;;;;;5.70;2.03;;;5.80;99.90;;;;;;5117504;28;20459;-68
2023/01/15 02:21:38;;;;;;;2.50;1.37;;;5.80;99.90;;;;;;5117312;28;20459;-68
2023/01/15 02:24:10;;;;;;;2.30;1.60;;;5.80;99.90;;;;;;5117585;28;20768;-67
2023/01/15 02:26:58;;;;;;;3.33;1.70;;;5.80;99.90;;;;;;5117990;28;20831;-68
2023/01/15 02:29:32;;;;;;;2.20;1.40;;;5.80;99.90;;;;;;5116950;28;20434;-68
2023/01/15 02:32:01;;;;;;;3.53;1.63;;;5.80;99.90;;;;;;5117817;28;20432;-68
2023/01/15 02:34:35;;;;;;;2.93;1.40;;;5.80;99.90;;;;;;5116669;28;20444;-68
2023/01/15 02:37:07;;;;;;;2.70;1.90;;;5.80;99.90;;;;;;5121277;28;20916;-68
2023/01/15 02:39:38;;;;;;;3.90;1.60;;;5.70;99.90;;;;;;5138688;28;20439;-67
2023/01/15 02:42:09;;;;;;;4.93;2.07;;;5.70;99.90;;;;;;5137778;28;21004;-67
2023/01/15 02:44:39;;;;;;;3.40;1.90;;;5.70;99.90;;;;;;5137735;28;20445;-67
2023/01/15 02:47:10;;;;;;;3.63;1.30;;;5.70;99.90;;;;;;5136512;28;20747;-67
2023/01/15 02:49:40;;;;;;;6.70;2.53;;;5.70;99.90;;;;;;5121736;28;20462;-67
2023/01/15 02:52:13;;;;;;;4.43;1.93;;;5.70;99.90;;;;;;5138202;28;20447;-67
2023/01/15 02:54:45;;;;;;;4.13;1.90;;;5.70;99.90;;;;;;5135663;27;20459;-67
2023/01/15 02:57:16;;;;;;;3.37;1.70;;;5.70;99.90;;;;;;5137461;27;20487;-67
2023/01/15 02:59:48;;;;;;;4.30;1.57;;;5.60;99.90;;;;;;5140895;27;20437;-68
2023/01/15 03:02:20;;;;;;;6.63;1.93;;;5.70;99.90;;;;;;5142125;27;20558;-67
2023/01/15 03:04:52;;;;;;;4.87;1.83;;;5.60;99.90;;;;;;5142190;27;20901;-67
2023/01/15 03:07:25;;;;;;;3.50;1.80;;;5.60;99.90;;;;;;5142236;27;20457;-67
2023/01/15 03:09:54;;;;;;;2.90;1.93;;;5.60;99.90;;;;;;5124261;27;20459;-67
2023/01/15 03:12:27;;;;;;;3.60;1.90;;;5.50;99.90;;;;;;5121540;27;20460;-68
2023/01/15 03:15:05;;;;;;;4.03;1.67;;;5.50;99.90;;;;;;5141371;27;20557;-67
2023/01/15 03:17:36;;;;;;;3.13;1.77;;;5.50;99.90;;;;;;5141858;27;20515;-68
2023/01/15 03:20:10;;;;;;;2.60;1.33;;;5.50;99.90;;;;;;5126251;27;20434;-68
2023/01/15 03:22:42;;;;;;;2.67;1.50;;;5.40;99.90;;;;;;5139215;27;20485;-68
2023/01/15 03:25:13;;;;;;;5.80;1.87;;;5.40;99.90;;;;;;5141872;27;20437;-67
2023/01/15 03:27:42;;;;;;;5.23;2.00;;;5.40;99.90;;;;;;5141887;27;20714;-67
2023/01/15 03:30:12;;;;;;;2.30;1.40;;;5.40;99.90;;;;;;5141505;27;20475;-67
2023/01/15 03:32:40;;;;;;;2.90;1.50;;;5.40;99.90;;;;;;5125480;27;20467;-67
2023/01/15 03:35:29;;;;;;;4.27;1.70;;;5.40;99.90;;;;;;5120601;28;20678;-67
2023/01/15 03:37:57;;;;;;;3.07;1.97;;;5.40;99.90;;;;;;5120584;28;20497;-67
2023/01/15 03:40:25;;;;;;;5.87;2.00;;;5.30;99.90;;;;;;5120986;28;20434;-67
2023/01/15 03:45:39;;;;;;;3.23;1.60;;;5.30;99.90;;;;;;5120551;28;20417;-67
2023/01/15 03:48:17;;;;;;;3.00;1.73;;;5.30;99.90;;;;;;5121205;28;20426;-67
2023/01/15 03:50:49;;;;;;;4.80;1.83;;;5.40;99.90;;;;;;5120471;28;20771;-67
2023/01/15 03:53:21;;;;;;;3.50;1.77;;;5.40;99.90;;;;;;5119707;28;20463;-68
2023/01/15 03:55:53;;;;;;;4.63;1.67;;;5.40;99.90;;;;;;5120210;28;20458;-67
2023/01/15 03:58:25;;;;;;;3.23;2.20;;;5.30;99.90;;;;;;5120380;28;20571;-67
2023/01/15 04:00:55;;;;;;;2.93;1.40;;;5.30;99.90;;;;;;5120198;28;20478;-67
2023/01/15 04:03:24;;;;;;;3.23;1.87;;;5.30;99.90;;;;;;5119683;28;20459;-67
2023/01/15 04:05:54;;;;;;;2.97;1.77;;;5.30;99.90;;;;;;5119759;28;20454;-67
2023/01/15 04:08:24;;;;;;;3.27;2.67;;;5.30;99.90;;;;;;5119835;28;20436;-67
2023/01/15 04:10:53;;;;;;;2.60;1.60;;;5.20;99.90;;;;;;5119142;28;20434;-67
2023/01/15 04:13:20;;;;;;;4.43;1.43;;;5.20;99.90;;;;;;5118842;28;20860;-67
2023/01/15 04:15:47;;;;;;;4.93;1.80;;;5.20;99.90;;;;;;5120060;28;20898;-67
2023/01/15 04:18:15;;;;;;;2.40;1.43;;;5.20;99.90;;;;;;5120622;28;20490;-68
2023/01/15 04:20:42;;;;;;;4.33;1.80;;;5.20;99.90;;;;;;5120208;28;20567;-67
2023/01/15 04:23:09;;;;;;;4.13;1.80;;;5.30;99.90;;;;;;5119622;28;20459;-67
2023/01/15 04:25:38;;;;;;;4.93;1.50;;;5.30;99.90;;;;;;5120184;28;20462;-68
2023/01/15 04:28:05;;;;;;;2.47;1.50;;;5.30;99.90;;;;;;5120089;28;20466;-68
2023/01/15 04:30:32;;;;;;;4.63;1.50;;;5.30;99.90;;;;;;5118797;28;20487;-68
2023/01/15 04:32:59;;;;;;;5.13;2.10;;;5.30;99.90;;;;;;5119709;28;20767;-68
2023/01/15 04:35:27;;;;;;;5.67;1.90;;;5.30;99.90;;;;;;5124543;27;20505;-67
2023/01/15 04:37:55;;;;;;;3.37;1.67;;;5.30;99.90;;;;;;5140452;27;20490;-67
2023/01/15 04:45:55;;;;;;;3.53;2.43;;;5.30;99.90;;;;;;5133938;27;20451;-68
2023/01/15 04:48:22;;;;;;;4.00;1.73;;;5.30;99.90;;;;;;5120818;27;20455;-67
2023/01/15 04:50:50;;;;;;;5.60;2.07;;;5.20;99.90;;;;;;5118793;28;20463;-67
2023/01/15 04:53:17;;;;;;;3.03;1.60;;;5.30;99.90;;;;;;5119774;28;20464;-68
2023/01/15 04:55:44;;;;;;;8.00;1.83;;;5.30;99.90;;;;;;5131156;27;20456;-69
2023/01/15 04:58:13;;;;;;;3.73;1.47;;;5.20;99.90;;;;;;5119670;28;20484;-67
2023/01/15 05:00:41;;;;;;;3.90;1.73;;;5.30;99.90;;;;;;5118839;28;20772;-67
2023/01/15 05:03:08;;;;;;;5.90;2.27;;;5.20;99.90;;;;;;5119402;28;20485;-67
2023/01/15 05:05:35;;;;;;;4.10;1.73;;;5.30;99.90;;;;;;5118983;28;20465;-67
2023/01/15 05:08:02;;;;;;;2.53;1.80;;;5.30;99.90;;;;;;5118065;28;20436;-67
2023/01/15 05:10:29;;;;;;;5.20;1.93;;;5.30;99.90;;;;;;5118595;28;20555;-67
2023/01/15 05:12:56;;;;;;;3.83;2.20;;;5.30;99.90;;;;;;5119245;28;20745;-67
2023/01/15 05:15:25;;;;;;;2.83;1.50;;;5.40;99.90;;;;;;5118451;28;20471;-68
2023/01/15 05:17:52;;;;;;;2.87;1.60;;;5.40;99.90;;;;;;5128236;27;20771;-68
2023/01/15 05:20:19;;;;;;;5.00;1.90;;;5.30;99.90;;;;;;5138850;27;20437;-68
2023/01/15 05:22:46;;;;;;;3.60;2.03;;;5.40;99.90;;;;;;5138144;27;20440;-67
2023/01/15 05:25:14;;;;;;;6.33;2.10;;;5.40;99.90;;;;;;5139338;27;20502;-67
2023/01/15 05:27:41;;;;;;;4.43;2.13;;;5.30;99.90;;;;;;5133670;27;20431;-67
2023/01/15 05:30:10;;;;;;;4.40;2.50;;;5.30;99.90;;;;;;5117448;28;20933;-67
2023/01/15 05:32:39;;;;;;;5.70;3.03;;;5.30;99.90;;;;;;5128573;27;20752;-67
2023/01/15 05:35:07;;;;;;;6.93;3.00;;;5.40;99.90;;;;;;5138139;27;20459;-67
2023/01/15 05:37:34;;;;;;;7.50;2.53;;;5.40;99.90;;;;;;5137863;27;20957;-68
2023/01/15 05:40:01;;;;;;;9.80;3.03;;;5.40;99.90;;;;;;5118569;28;20461;-67
2023/01/15 05:42:28;;;;;;;5.30;2.20;;;5.40;99.90;;;;;;5118459;28;20455;-67
2023/01/15 05:44:55;;;;;;;5.17;2.00;;;5.40;99.90;;;;;;5118680;28;20463;-67
2023/01/15 05:47:22;;;;;;;8.03;2.00;;;5.40;99.90;;;;;;5118389;28;20463;-67
2023/01/15 05:49:51;;;;;;;8.40;2.40;;;5.40;99.90;;;;;;5133696;27;20567;-67
2023/01/15 05:52:18;;;;;;;4.40;2.07;;;5.40;99.90;;;;;;5138953;27;20468;-67
2023/01/15 05:54:45;;;;;;;6.70;2.70;;;5.40;99.90;;;;;;5138311;27;20462;-67
2023/01/15 05:57:13;;;;;;;7.80;2.60;;;5.50;99.90;;;;;;5138779;27;20906;-67
2023/01/15 05:59:41;;;;;;;7.80;2.67;;;5.50;99.90;;;;;;5127629;27;20517;-68
2023/01/15 06:02:08;;;;;;;5.80;2.27;;;5.50;99.90;;;;;;5118292;28;20434;-67
2023/01/15 06:04:35;;;;;;;6.03;2.50;;;5.50;99.90;;;;;;5117377;28;20542;-67
2023/01/15 06:07:04;;;;;;;9.40;2.37;;;5.50;99.90;;;;;;5117893;28;20437;-67
2023/01/15 06:09:31;;;;;;;7.10;2.60;;;5.50;99.90;;;;;;5122828;27;20446;-67
2023/01/15 06:11:58;;;;;;;3.70;2.33;;;5.50;99.90;;;;;;5138624;27;20455;-67
2023/01/15 06:14:25;;;;;;;8.90;2.50;;;5.60;99.90;;;;;;5138652;27;20442;-67
2023/01/15 06:16:52;;;;;;;3.53;1.97;;;5.60;99.90;;;;;;5138500;27;20807;-67
2023/01/15 06:19:20;;;;;;;6.27;1.90;;;5.60;99.90;;;;;;5137424;27;20487;-67
2023/01/15 06:21:47;;;;;;;7.10;2.67;;;5.60;99.90;;;;;;5117983;28;20468;-67
2023/01/15 06:24:16;;;;;;;4.67;2.00;;;5.60;99.90;;;;;;5117228;28;20466;-67
2023/01/15 06:26:44;;;;;;;3.93;2.30;;;5.70;99.90;;;;;;5117788;28;20459;-67
2023/01/15 06:29:12;;;;;;;8.10;2.60;;;5.70;99.90;;;;;;5117612;28;20460;-67
2023/01/15 06:31:39;;;;;;;6.77;2.77;;;5.70;99.90;;;;;;5132430;27;20482;-67
2023/01/15 06:34:06;;;;;;;6.33;2.50;;;5.70;99.90;;;;;;5137291;27;20561;-67
2023/01/15 06:36:33;;;;;;;7.90;2.87;;;5.70;99.90;;;;;;5134436;27;20763;-67
2023/01/15 06:39:01;;;;;;;9.23;3.20;;;5.70;99.90;;;;;;5135351;28;20465;-67
2023/01/15 06:47:21;;;;;;;5.20;2.10;;;5.70;99.90;;;;;;5135628;28;20496;-67
2023/01/15 06:49:49;;;;;;;4.40;2.00;;;5.70;99.90;;;;;;5136446;27;20883;-67
2023/01/15 06:52:16;;;;;;;7.10;2.20;;;5.70;21.10;;;;;;5122850;28;20451;-66
2023/01/15 06:54:43;;;;;;;6.77;2.37;;;5.80;1.00;;;;;;5115850;28;20467;-67
2023/01/15 06:57:12;;;;;;;12.83;2.57;;;5.80;1.00;;;;;;5115423;28;20510;-67
2023/01/15 06:59:39;;;;;;;8.03;3.07;;;5.80;1.00;;;;;;5115545;28;20495;-67
2023/01/15 07:02:06;;;;;;;5.97;2.30;;;5.80;1.00;;;;;;5123101;28;20878;-67
2023/01/15 07:04:33;;;;;;;4.83;2.50;;;5.80;1.00;;;;;;5135756;28;20463;-66
2023/01/15 07:07:01;;;;;;;5.23;2.20;;;5.80;1.00;;;;;;5136438;28;20452;-67
2023/01/15 07:09:28;;;;;;;10.47;2.87;;;5.80;1.00;;;;;;5136392;28;20465;-67
2023/01/15 07:11:55;;;;;;;6.47;2.60;;;5.70;1.00;;;;;;5133037;28;20437;-67
2023/01/15 07:14:25;;;;;;;5.30;2.77;;;5.70;1.00;;;;;;5116194;28;20434;-67
2023/01/15 07:16:53;;;;;;;6.43;2.20;;;5.80;1.00;;;;;;5118418;28;20490;-67
2023/01/15 07:19:20;;;;;;;6.83;2.30;;;5.70;1.00;;;;;;5135652;28;20457;-68
2023/01/15 07:21:48;;;;;;;8.00;2.40;;;5.70;1.00;;;;;;5137450;28;20468;-67
2023/01/15 07:24:16;;;;;;;4.43;1.93;;;5.70;1.00;;;;;;5136913;28;20866;-66
2023/01/15 07:26:44;;;;;;;7.93;3.70;;;5.70;1.00;;;;;;5137264;28;20437;-66
2023/01/15 07:29:12;;;;;;;5.40;2.40;;;5.70;1.00;;;;;;5137324;27;20752;-67
2023/01/15 07:31:41;;;;;;;4.70;2.17;;;5.70;1.00;;;;;;5137468;28;20457;-67
2023/01/15 07:34:08;;;;;;;7.03;2.90;;;5.70;1.00;;;;;;5123771;27;20761;-67
2023/01/15 07:36:36;;;;;;;5.10;2.10;;;5.70;1.00;;;;;;5116821;28;20466;-67
2023/01/15 07:39:04;;;;;;;5.47;2.10;;;5.70;1.00;;;;;;5117358;28;20586;-67
2023/01/15 07:49:48;;;;;;;9.13;2.83;;;5.60;1.00;;;;;;5141209;27;20479;-66
2023/01/15 07:52:17;;;;;;;4.70;2.37;;;5.70;1.00;;;;;;5140992;27;20463;-66
2023/01/15 07:54:45;;;;;;;11.83;3.40;;;5.70;1.00;;;;;;5130020;27;20444;-67
2023/01/15 07:57:13;;;;;;;5.30;2.20;;;5.70;1.00;;;;;;5121835;27;20463;-66
2023/01/15 07:59:40;;;;;;;9.23;3.47;;;5.70;1.00;;;;;;5120302;28;20499;-67
2023/01/15 08:02:08;;;;;;;3.80;1.97;;;5.70;1.00;;;;;;5120329;28;20442;-67
2023/01/15 08:04:36;;;;;;;7.53;3.10;;;5.70;1.00;;;;;;5123371;27;20469;-67
2023/01/15 08:07:04;;;;;;;5.50;2.30;;;5.70;1.00;;;;;;5126197;27;20528;-66
2023/01/15 08:09:31;;;;;;;6.60;2.27;;;5.70;1.00;;;;;;5139541;27;20520;-67
2023/01/15 08:17:30;;;;;;;8.50;1.97;;;5.70;1.00;;;;;;5121349;27;20951;-67
2023/01/15 08:19:57;;;;;;;12.10;3.30;;;5.80;1.00;;;;;;5137471;27;20471;-67
2023/01/15 08:22:25;;;;;;;6.53;2.57;;;5.80;1.00;;;;;;5140398;27;20433;-66
2023/01/15 08:24:52;;;;;;;5.43;2.30;;;5.80;1.00;;;;;;5140336;27;20454;-68
2023/01/15 08:27:19;;;;;;;5.37;2.07;;;5.80;1.00;;;;;;5120147;27;20452;-66
2023/01/15 08:29:46;;;;;;;7.83;2.80;;;5.70;1.00;;;;;;5137593;27;20553;-66
2023/01/15 08:32:13;;;;;;;6.03;2.77;;;5.70;1.00;;;;;;5138368;27;20855;-67
2023/01/15 08:34:42;;;;;;;5.67;2.80;;;5.70;1.00;;;;;;5125502;27;20467;-66
2023/01/15 08:37:09;;;;;;;6.17;2.50;;;5.70;1.00;;;;;;5130858;27;20465;-66
2023/01/15 08:39:36;;;;;;;7.00;2.97;;;5.60;1.00;;;;;;5137828;27;20479;-66
2023/01/15 08:42:04;;;;;;;5.10;2.43;;;5.70;1.00;;;;;;5136466;27;20879;-66
2023/01/15 08:44:31;;;;;;;10.80;5.23;;;5.70;1.00;;;;;;5137832;27;20463;-65
2023/01/15 08:46:59;;;;;;;7.20;3.70;;;5.70;1.00;;;;;;5128941;27;20465;-66
2023/01/15 08:49:26;;;;;;;6.87;3.20;;;5.60;1.00;;;;;;5137889;27;20461;-66
2023/01/15 08:51:54;;;;;;;6.13;3.60;;;5.70;1.00;;;;;;5139824;27;20750;-66
2023/01/15 08:54:24;;;;;;;7.17;3.80;;;5.70;1.00;;;;;;5133345;27;20467;-66
2023/01/15 08:56:51;;;;;;;7.50;4.00;;;5.70;1.00;;;;;;5136026;27;20828;-66
2023/01/15 08:59:18;;;;;;;14.03;6.13;;;5.70;1.00;;;;;;5134808;27;20489;-67
2023/01/15 09:01:46;;;;;;;14.20;5.47;;;5.60;1.00;;;;;;5134781;27;20473;-66
2023/01/15 09:04:14;;;;;;;11.03;4.13;;;5.60;1.00;;;;;;5136270;27;20818;-66
2023/01/15 09:06:42;;;;;;;9.23;4.00;;;5.70;1.00;;;;;;5137145;27;20459;-65
2023/01/15 09:09:11;;;;;;;6.07;3.03;;;5.60;1.00;;;;;;5137747;27;20458;-66
2023/01/15 09:11:40;;;;;;;7.23;2.20;;;5.60;1.00;;;;;;5121766;27;20897;-65
2023/01/15 09:14:08;;;;;;;6.27;1.80;;;5.60;1.00;;;;;;5119012;28;20824;-65
2023/01/15 09:16:35;;;;;;;8.20;2.30;;;5.60;1.00;;;;;;5119485;28;20464;-65
2023/01/15 09:19:02;;;;;;;4.07;1.70;;;5.60;1.00;;;;;;5119114;28;20487;-66
2023/01/15 09:21:30;;;;;;;3.33;1.77;;;5.60;1.00;;;;;;5129452;27;20444;-65
2023/01/15 09:23:57;;;;;;;3.40;1.70;;;5.60;1.00;;;;;;5138745;27;20459;-66
2023/01/15 09:26:30;;;;;;;4.87;1.90;;;5.60;1.00;;;;;;5138590;27;20467;-65
2023/01/15 09:28:57;;;;;;;3.20;1.60;;;5.60;1.00;;;;;;5137528;27;20469;-65
2023/01/15 09:31:25;;;;;;;4.17;1.70;;;5.50;1.00;;;;;;5135750;27;20489;-65
2023/01/15 09:33:52;;;;;;;6.77;1.90;;;5.50;1.00;;;;;;5138385;27;20891;-66
2023/01/15 09:36:23;;;;;;;5.23;1.80;;;5.40;1.00;;;;;;5137849;27;20455;-66
2023/01/15 09:38:50;;;;;;;5.20;1.50;;;5.50;1.00;;;;;;5138300;27;20494;-65
2023/01/15 09:44:22;;;;;;;5.10;2.00;;;5.40;1.00;;;;;;5117281;28;20480;-65
2023/01/15 09:47:00;;;;;;;9.57;2.03;;;5.40;1.00;;;;;;5118716;27;20445;-65
2023/01/15 09:49:40;;;;;;;2.87;1.73;;;5.60;1.00;;;;;;5117990;28;20422;-65
2023/01/15 09:52:15;;;;;;;8.03;2.70;;;5.80;1.00;;;;;;5121601;27;20868;-66
2023/01/15 09:54:52;;;;;;;8.90;4.67;;;5.90;1.00;;;;;;5117180;28;20463;-65
2023/01/15 09:57:23;;;;;;;8.93;3.47;;;6.00;1.00;;;;;;5117475;28;20470;-65
2023/01/15 09:59:59;;;;;;;6.07;4.00;;;6.00;1.00;;;;;;5116762;28;20487;-63
2023/01/15 10:02:32;;;;;;;7.57;2.40;;;6.00;1.00;;;;;;5116704;28;20558;-63
2023/01/15 10:05:04;;;;;;;6.23;3.10;;;6.00;1.00;;;;;;5117604;28;20906;-62
2023/01/15 10:07:39;;;;;;;7.60;3.07;;;5.80;1.00;;;;;;5126169;27;20463;-61
2023/01/15 10:10:11;;;;;;;7.20;3.23;;;5.90;1.00;;;;;;5137304;27;20553;-63
2023/01/15 10:12:41;;;;;;;7.63;2.20;;;6.00;1.00;;;;;;5127982;27;20463;-61
2023/01/15 10:15:22;;;;;;;8.93;4.07;;;6.00;1.00;;;;;;5116302;28;20486;-62
2023/01/15 10:17:53;;;;;;;5.37;3.07;;;6.20;1.00;;;;;;5116377;27;20458;-61
2023/01/15 10:20:39;;;;;;;4.23;2.13;;;6.20;1.00;;;;;;5116759;28;20503;-63
2023/01/15 10:23:25;;;;;;;8.47;3.17;;;6.40;1.00;;;;;;5118834;27;20460;-63
2023/01/15 10:25:59;;;;;;;10.80;2.10;;;6.70;1.00;;;;;;5137117;27;20465;-61
2023/01/15 10:28:30;;;;;;;12.30;2.70;;;6.60;99.90;;;;;;5137292;27;20458;-62
2023/01/15 10:31:07;;;;;;;3.70;2.07;;;6.40;99.90;;;;;;5136326;27;20482;-62
2023/01/15 10:33:51;;;;;;;10.50;2.90;;;6.30;99.90;;;;;;5133499;27;20461;-62
2023/01/15 10:36:25;;;;;;;5.20;2.70;;;6.30;1.00;;;;;;5116847;28;20459;-65
2023/01/15 10:39:00;;;;;;;9.03;2.47;;;6.20;99.90;;;;;;5117640;28;20459;-61
2023/01/15 10:41:39;;;;;;;5.17;2.20;;;6.20;99.90;;;;;;5116642;28;20430;-62
2023/01/15 10:44:13;;;;;;;7.90;3.53;;;6.20;99.90;;;;;;5116811;28;20459;-62
2023/01/15 10:46:46;;;;;;;6.77;2.20;;;6.20;99.90;;;;;;5127387;28;20480;-63
2023/01/15 10:49:15;;;;;;;5.40;2.27;;;6.20;99.90;;;;;;5136902;28;20459;-63
2023/01/15 10:51:45;;;;;;;5.67;2.40;;;6.10;99.90;;;;;;5137486;28;20462;-63
2023/01/15 10:54:22;;;;;;;5.90;2.47;;;6.20;99.90;;;;;;5138002;28;20716;-62
2023/01/15 10:56:57;;;;;;;13.73;3.20;;;6.20;99.90;;;;;;5128189;27;20466;-62
2023/01/15 10:59:35;;;;;;;6.80;2.50;;;6.30;99.90;;;;;;5117534;28;20490;-62
2023/01/15 11:02:15;;;;;;;3.73;2.00;;;6.40;99.90;;;;;;5117250;28;20766;-62
2023/01/15 11:04:42;;;;;;;9.53;2.00;;;6.30;99.90;;;;;;5117629;28;20897;-61
2023/01/15 11:07:12;;;;;;;9.83;2.27;;;6.30;99.90;;;;;;5125223;28;20916;-62
2023/01/15 11:09:41;;;;;;;5.10;2.20;;;6.30;99.90;;;;;;5137841;28;20454;-63
2023/01/15 11:20:49;;;;;;;3.27;1.90;;;6.50;99.90;;;;;;5119136;28;20486;-62
2023/01/15 11:23:18;;;;;;;6.90;2.17;;;6.50;99.90;;;;;;5121390;28;20742;-62
2023/01/15 11:25:50;;;;;;;5.67;2.20;;;6.40;99.90;;;;;;5121061;28;20720;-61
2023/01/15 11:28:17;;;;;;;4.10;2.00;;;6.40;99.90;;;;;;5130555;27;20903;-62
2023/01/15 11:30:54;;;;;;;5.40;2.23;;;6.40;99.90;;;;;;5141012;27;20482;-60
2023/01/15 11:33:25;;;;;;;7.07;2.40;;;6.40;99.90;;;;;;5139423;27;20458;-62
2023/01/15 11:35:57;;;;;;;4.63;2.33;;;6.40;99.90;;;;;;5141437;27;20466;-62
2023/01/15 11:38:25;;;;;;;6.77;2.53;;;6.40;99.90;;;;;;5133568;27;20446;-62
2023/01/15 11:40:53;;;;;;;5.83;2.20;;;6.40;99.90;;;;;;5121856;27;20792;-60
2023/01/15 11:51:58;;;;;;;7.27;3.03;;;6.50;99.90;;;;;;5116645;27;20622;-61
2023/01/15 11:54:26;;;;;;;6.40;1.90;;;6.50;99.90;;;;;;5139762;27;20462;-60
2023/01/15 11:56:55;;;;;;;11.00;2.70;;;6.50;99.90;;;;;;5139448;27;20462;-62
2023/01/15 11:59:23;;;;;;;6.03;2.30;;;6.40;99.90;;;;;;5136627;27;20479;-62
2023/01/15 12:01:58;;;;;;;6.20;2.30;;;6.40;99.90;;;;;;5138104;27;20549;-62
2023/01/15 12:04:38;;;;;;;7.17;3.00;;;6.40;99.90;;;;;;5138070;27;20466;-62
2023/01/15 15:12:35;;;;;;;5.60;2.07;;;6.10;99.90;;;;;;3723592;28;22422;-60
2023/01/15 15:15:11;;;;;;;4.30;2.20;;;5.90;99.90;;;;;;5081637;28;20450;-61
2023/01/15 15:17:48;;;;;;;3.20;1.90;;;5.80;99.90;;;;;;5081386;28;20462;-61
2023/01/15 15:20:24;;;;;;;4.00;2.27;;;5.80;99.90;;;;;;5080454;28;20489;-61
2023/01/15 15:22:58;;;;;;;4.00;2.03;;;5.80;99.90;;;;;;5080607;28;20472;-62
2023/01/15 15:25:30;;;;;;;3.53;1.83;;;5.90;99.90;;;;;;5089198;28;20467;-59
2023/01/15 15:28:09;;;;;;;4.77;2.00;;;5.80;99.90;;;;;;5100802;28;20435;-59
2023/01/15 15:30:42;;;;;;;3.80;1.87;;;5.90;99.90;;;;;;5100818;28;20903;-60
2023/01/15 15:33:17;;;;;;;11.83;5.70;;;5.90;99.90;;;;;;5100873;28;20952;-60
2023/01/15 15:35:46;;;;;;;20.67;10.93;;;6.00;99.90;;;;;;5099038;28;20463;-60
2023/01/15 15:38:19;;;;;;;4.43;2.10;;;6.00;99.90;;;;;;5099939;28;20460;-58
2023/01/15 15:40:50;;;;;;;9.07;4.37;;;6.00;99.90;;;;;;5100009;28;20462;-61
2023/01/15 15:49:08;;;;;;;8.60;4.57;;;6.00;99.90;;;;;;5080192;28;20429;-58
2023/01/15 15:51:38;;;;;;;15.87;6.70;;;6.10;99.90;;;;;;5079335;28;20457;-59
2023/01/15 15:54:15;;;;;;;13.50;7.90;;;6.00;99.90;;;;;;5080080;28;20446;-60
2023/01/15 15:56:58;;;;;;;9.70;4.17;;;6.10;99.90;;;;;;5087813;28;20460;-59
2023/01/15 15:59:31;;;;;;;8.73;4.80;;;6.10;99.90;;;;;;5099972;28;20745;-59
2023/01/15 16:02:01;;;;;;;5.30;3.23;;;6.10;99.90;;;;;;5100026;28;20486;-59
2023/01/15 16:04:28;;;;;;;7.77;3.37;;;6.10;99.90;;;;;;5099350;28;20466;-58
2023/01/15 16:06:56;;;;;;;3.77;2.30;;;6.00;99.90;;;;;;5092489;28;20460;-59
2023/01/15 16:09:24;;;;;;;3.10;2.10;;;6.00;99.90;;;;;;5079919;28;20775;-56
2023/01/15 16:11:53;;;;;;;6.80;1.97;;;6.00;99.90;;;;;;5080646;28;20564;-60
2023/01/15 16:14:21;;;;;;;4.27;2.20;;;6.00;99.90;;;;;;5116004;28;20483;-59
2023/01/15 16:16:51;;;;;;;5.13;2.50;;;6.00;99.90;;;;;;5120246;27;20463;-60
2023/01/15 16:19:24;;;;;;;3.60;2.10;;;6.00;99.90;;;;;;5120207;28;20925;-60
2023/01/15 16:21:52;;;;;;;3.60;2.10;;;6.00;99.90;;;;;;5136115;27;20487;-61
2023/01/15 16:24:25;;;;;;;6.03;2.40;;;6.00;99.90;;;;;;5138986;27;20891;-59
2023/01/15 16:27:06;;;;;;;5.33;2.20;;;6.00;99.90;;;;;;5137328;27;20451;-58
2023/01/15 16:29:34;;;;;;;5.43;2.00;;;6.10;99.90;;;;;;5134478;27;20460;-59
2023/01/15 16:32:11;;;;;;;3.37;1.73;;;6.10;99.90;;;;;;5138808;27;20447;-58
2023/01/15 16:34:38;;;;;;;5.70;2.17;;;6.10;99.90;;;;;;5140771;27;20465;-60
2023/01/15 16:37:21;;;;;;;3.40;2.03;;;6.10;99.90;;;;;;5137647;27;20466;-59
2023/01/15 16:39:48;;;;;;;5.50;2.20;;;6.10;99.90;;;;;;5139011;27;20977;-60
2023/01/15 16:42:26;;;;;;;4.63;1.90;;;6.00;99.90;;;;;;5139676;27;20466;-59
2023/01/15 16:44:56;;;;;;;4.30;2.07;;;6.00;99.90;;;;;;5139520;27;20462;-61
2023/01/15 16:47:27;;;;;;;2.93;2.03;;;6.00;99.90;;;;;;5136446;27;20451;-61
2023/01/15 16:50:29;;;;;;;4.30;2.53;;;5.90;99.90;;;;;;5135328;27;20433;-60
2023/01/15 16:52:59;;;;;;;6.10;3.37;;;5.90;99.90;;;;;;5135969;27;20458;-61
2023/01/15 16:55:37;;;;;;;7.67;2.40;;;5.80;99.90;;;;;;5133441;27;20489;-61
2023/01/15 16:58:31;;;;;;;3.93;2.07;;;5.80;99.90;;;;;;5132823;27;20577;-61
2023/01/15 17:01:00;;;;;;;6.10;2.30;;;5.80;99.90;;;;;;5135121;27;20453;-61
2023/01/15 17:03:31;;;;;;;5.10;2.70;;;5.80;99.90;;;;;;5134366;27;20433;-59
2023/01/15 17:06:02;;;;;;;3.60;1.80;;;5.80;99.90;;;;;;5136209;27;20455;-60
2023/01/15 17:08:37;;;;;;;5.53;2.13;;;5.80;99.90;;;;;;5136886;27;20511;-61
2023/01/15 17:11:05;;;;;;;7.40;2.30;;;5.80;99.90;;;;;;5133796;27;20802;-61
2023/01/15 17:13:36;;;;;;;10.80;2.63;;;5.80;99.90;;;;;;5134682;27;20493;-61
2023/01/15 17:16:06;;;;;;;5.17;2.10;;;5.80;99.90;;;;;;5135324;27;20451;-61
2023/01/15 17:18:35;;;;;;;3.90;1.90;;;5.80;99.90;;;;;;5137769;27;20455;-61
2023/01/15 17:21:02;;;;;;;3.53;2.20;;;5.90;99.90;;;;;;5134064;27;20482;-58